createdAt,value
2019-01-17T00:00:05.073Z,81.40
2019-01-17T00:01:05.056Z,81.49
2019-01-17T00:02:05.033Z,79.03
2019-01-17T00:03:05.014Z,76.95
2019-01-17T00:04:05.002Z,77.23
2019-01-17T00:05:04.984Z,78.75
2019-01-17T00:06:04.964Z,79.88
2019-01-17T00:07:04.947Z,80.36
2019-01-17T00:08:04.921Z,80.26
2019-01-17T00:09:04.910Z,81.30
2019-01-17T00:10:04.892Z,81.21
2019-01-17T00:11:04.867Z,81.21
2019-01-17T00:12:04.853Z,82.15
2019-01-17T00:13:04.834Z,82.15
2019-01-17T00:14:04.835Z,82.91
2019-01-17T00:15:04.808Z,82.63
2019-01-17T00:16:04.781Z,82.34
2019-01-17T00:17:04.764Z,79.98
2019-01-17T00:18:04.747Z,79.69
2019-01-17T00:19:04.730Z,80.74
2019-01-17T00:20:04.708Z,81.49
2019-01-17T00:21:04.688Z,82.25
2019-01-17T00:22:04.672Z,81.45
2019-01-17T00:23:04.655Z,81.74
2019-01-17T00:24:04.639Z,80.74
2019-01-17T00:25:04.612Z,79.22
2019-01-17T00:26:04.601Z,78.27
2019-01-17T00:27:04.584Z,77.99
2019-01-17T00:28:04.560Z,78.27
2019-01-17T00:29:04.557Z,77.51
2019-01-17T00:30:04.529Z,76.10
2019-01-17T00:31:04.511Z,75.91
2019-01-17T00:32:04.493Z,75.53
2019-01-17T00:33:04.482Z,74.68
2019-01-17T00:34:04.453Z,76.76
2019-01-17T00:35:04.432Z,79.32
2019-01-17T00:36:04.416Z,78.08
2019-01-17T00:37:04.406Z,77.61
2019-01-17T00:38:04.383Z,77.23
2019-01-17T00:39:04.363Z,77.99
2019-01-17T00:40:04.352Z,79.50
2019-01-17T00:41:04.329Z,78.65
2019-01-17T00:42:04.309Z,77.89
2019-01-17T00:43:04.294Z,78.46
2019-01-17T00:44:04.275Z,78.27
2019-01-17T00:45:04.255Z,79.13
2019-01-17T00:46:04.237Z,79.69
2019-01-17T00:47:04.218Z,79.41
2019-01-17T00:48:04.206Z,78.46
2019-01-17T00:49:04.182Z,78.46
2019-01-17T00:50:04.164Z,79.13
2019-01-17T00:51:04.143Z,79.98
2019-01-17T00:52:04.124Z,79.98
2019-01-17T00:53:04.134Z,79.60
2019-01-17T00:54:09.032Z,76.95
2019-01-17T00:55:04.074Z,76.19
2019-01-17T00:56:04.054Z,76.29
2019-01-17T00:57:04.044Z,76.67
2019-01-17T00:58:04.018Z,76.86
2019-01-17T00:59:04.004Z,76.25
2019-01-17T01:00:03.984Z,76.10
2019-01-17T01:01:03.963Z,75.72
2019-01-17T01:02:04.031Z,75.91
2019-01-17T01:03:03.936Z,77.95
2019-01-17T01:04:03.912Z,77.95
2019-01-17T01:05:03.893Z,77.58
2019-01-17T01:06:03.875Z,78.05
2019-01-17T01:07:03.860Z,78.05
2019-01-17T01:08:03.837Z,77.95
2019-01-17T01:09:03.818Z,77.67
2019-01-17T01:10:03.799Z,77.70
2019-01-17T01:11:03.783Z,76.95
2019-01-17T01:12:03.770Z,77.51
2019-01-17T01:13:03.749Z,76.91
2019-01-17T01:14:03.730Z,77.42
2019-01-17T01:15:03.709Z,77.51
2019-01-17T01:16:03.694Z,77.33
2019-01-17T01:17:03.690Z,76.95
2019-01-17T01:18:03.655Z,76.25
2019-01-17T01:19:03.634Z,75.43
2019-01-17T01:20:03.618Z,74.96
2019-01-17T01:21:03.602Z,75.24
2019-01-17T01:22:03.584Z,76.00
2019-01-17T01:23:03.566Z,76.48
2019-01-17T01:24:03.547Z,77.51
2019-01-17T01:25:03.524Z,77.33
2019-01-17T01:26:03.515Z,78.18
2019-01-17T01:27:03.491Z,78.75
2019-01-17T01:28:03.470Z,79.41
2019-01-17T01:29:03.456Z,78.56
2019-01-17T01:30:03.436Z,78.27
2019-01-17T01:31:03.418Z,78.85
2019-01-17T01:32:03.404Z,79.22
2019-01-17T01:33:03.383Z,79.85
2019-01-17T01:34:03.365Z,79.28
2019-01-17T01:35:03.345Z,79.28
2019-01-17T01:36:03.329Z,79.09
2019-01-17T01:37:03.307Z,78.61
2019-01-17T01:38:03.292Z,77.29
2019-01-17T01:39:03.273Z,77.01
2019-01-17T01:40:03.250Z,78.52
2019-01-17T01:41:03.237Z,78.80
2019-01-17T01:42:03.214Z,78.99
2019-01-17T01:43:03.200Z,79.37
2019-01-17T01:44:03.181Z,79.75
2019-01-17T01:45:03.165Z,78.52
2019-01-17T01:46:03.143Z,78.71
2019-01-17T01:47:03.129Z,78.99
2019-01-17T01:48:03.113Z,77.95
2019-01-17T01:49:03.092Z,76.82
2019-01-17T01:50:03.072Z,76.15
2019-01-17T01:51:03.052Z,77.86
2019-01-17T01:52:03.030Z,76.91
2019-01-17T01:53:03.012Z,75.21
2019-01-17T01:54:02.997Z,74.93
2019-01-17T01:55:02.976Z,74.17
2019-01-17T01:56:02.960Z,74.74
2019-01-17T01:57:02.948Z,76.25
2019-01-17T01:58:02.921Z,78.14
2019-01-17T01:59:02.904Z,79.18
2019-01-17T02:00:02.887Z,79.94
2019-01-17T02:01:02.873Z,78.61
2019-01-17T02:02:02.854Z,77.20
2019-01-17T02:03:02.832Z,76.72
2019-01-17T02:04:02.814Z,76.15
2019-01-17T02:05:02.805Z,75.12
2019-01-17T02:06:02.774Z,74.93
2019-01-17T02:07:02.758Z,75.12
2019-01-17T02:08:02.740Z,76.72
2019-01-17T02:09:02.726Z,77.01
2019-01-17T02:10:02.702Z,77.58
2019-01-17T02:11:02.682Z,77.10
2019-01-17T02:12:02.665Z,76.82
2019-01-17T02:13:02.646Z,77.20
2019-01-17T02:14:02.632Z,77.29
2019-01-17T02:15:02.612Z,77.86
2019-01-17T02:16:02.602Z,76.72
2019-01-17T02:17:02.581Z,76.72
2019-01-17T02:18:02.559Z,76.63
2019-01-17T02:19:02.538Z,77.20
2019-01-17T02:20:02.521Z,77.76
2019-01-17T02:21:02.505Z,78.42
2019-01-17T02:22:02.487Z,78.61
2019-01-17T02:23:02.463Z,79.28
2019-01-17T02:24:02.447Z,78.61
2019-01-17T02:25:02.430Z,78.80
2019-01-17T02:26:02.405Z,79.85
2019-01-17T02:27:02.388Z,80.04
2019-01-17T02:28:02.376Z,79.18
2019-01-17T02:29:02.353Z,78.61
2019-01-17T02:30:02.349Z,77.95
2019-01-17T02:31:02.311Z,77.86
2019-01-17T02:32:02.306Z,79.09
2019-01-17T02:33:02.281Z,79.94
2019-01-17T02:34:02.264Z,80.13
2019-01-17T02:35:02.243Z,80.98
2019-01-17T02:36:02.232Z,80.98
2019-01-17T02:37:02.214Z,81.26
2019-01-17T02:38:02.192Z,81.26
2019-01-17T02:39:02.170Z,81.17
2019-01-17T02:40:02.150Z,81.36
2019-01-17T02:41:02.131Z,81.45
2019-01-17T02:42:02.115Z,81.64
2019-01-17T02:43:02.095Z,81.36
2019-01-17T02:44:02.079Z,82.02
2019-01-17T02:45:02.064Z,81.64
2019-01-17T02:46:02.043Z,81.07
2019-01-17T02:47:02.024Z,80.69
2019-01-17T02:48:02.003Z,79.56
2019-01-17T02:49:01.983Z,80.04
2019-01-17T02:50:01.967Z,80.88
2019-01-17T02:51:01.961Z,80.41
2019-01-17T02:52:01.929Z,80.79
2019-01-17T02:53:01.914Z,81.17
2019-01-17T02:54:01.894Z,80.98
2019-01-17T02:55:01.873Z,81.45
2019-01-17T02:56:01.859Z,81.36
2019-01-17T02:57:01.839Z,81.36
2019-01-17T02:58:01.822Z,81.74
2019-01-17T02:59:01.804Z,81.55
2019-01-17T03:00:01.787Z,81.36
2019-01-17T03:01:01.768Z,81.74
2019-01-17T03:02:01.741Z,80.88
2019-01-17T03:03:01.734Z,80.79
2019-01-17T03:04:01.706Z,80.69
2019-01-17T03:05:01.693Z,80.69
2019-01-17T03:06:01.679Z,81.07
2019-01-17T03:07:01.654Z,80.88
2019-01-17T03:08:01.638Z,81.26
2019-01-17T03:09:01.619Z,81.64
2019-01-17T03:10:01.601Z,81.83
2019-01-17T03:11:01.598Z,81.83
2019-01-17T03:12:01.564Z,82.31
2019-01-17T03:13:01.546Z,82.50
2019-01-17T03:14:01.530Z,82.50
2019-01-17T03:15:01.515Z,82.40
2019-01-17T03:16:01.493Z,82.59
2019-01-17T03:17:01.475Z,82.02
2019-01-17T03:18:01.453Z,79.75
2019-01-17T03:19:01.433Z,78.61
2019-01-17T03:20:01.426Z,78.61
2019-01-17T03:21:01.403Z,79.09
2019-01-17T03:22:01.380Z,79.85
2019-01-17T03:23:01.361Z,80.69
2019-01-17T03:24:01.347Z,80.69
2019-01-17T03:25:01.330Z,81.45
2019-01-17T03:26:01.312Z,81.26
2019-01-17T03:27:01.294Z,80.79
2019-01-17T03:28:01.274Z,80.79
2019-01-17T03:29:01.257Z,80.79
2019-01-17T03:30:01.235Z,82.40
2019-01-17T03:31:01.234Z,82.59
2019-01-17T03:32:01.203Z,83.34
2019-01-17T03:33:01.180Z,83.25
2019-01-17T03:34:01.159Z,83.25
2019-01-17T03:35:01.142Z,83.15
2019-01-17T03:36:01.125Z,82.78
2019-01-17T03:37:01.101Z,82.12
2019-01-17T03:38:01.087Z,82.21
2019-01-17T03:39:01.071Z,82.40
2019-01-17T03:40:01.058Z,82.21
2019-01-17T03:41:01.032Z,82.78
2019-01-17T03:42:01.015Z,82.68
2019-01-17T03:43:01.001Z,83.25
2019-01-17T03:44:00.974Z,83.63
2019-01-17T03:45:00.957Z,83.53
2019-01-17T03:46:00.938Z,83.53
2019-01-17T03:47:00.920Z,83.53
2019-01-17T03:48:00.910Z,82.97
2019-01-17T03:49:00.890Z,83.06
2019-01-17T03:50:00.869Z,83.15
2019-01-17T03:51:00.851Z,83.63
2019-01-17T03:52:00.836Z,83.25
2019-01-17T03:53:00.825Z,83.44
2019-01-17T03:54:00.792Z,82.87
2019-01-17T03:55:00.775Z,82.50
2019-01-17T03:56:00.757Z,81.55
2019-01-17T03:57:00.745Z,81.83
2019-01-17T03:58:00.727Z,80.60
2019-01-17T03:59:00.704Z,80.79
2019-01-17T04:00:00.684Z,80.69
2019-01-17T04:01:00.669Z,81.17
2019-01-17T04:02:00.649Z,81.55
2019-01-17T04:03:00.631Z,82.02
2019-01-17T04:04:00.613Z,82.12
2019-01-17T04:05:00.734Z,82.26
2019-01-17T04:06:00.576Z,82.68
2019-01-17T04:07:00.562Z,83.15
2019-01-17T04:08:00.538Z,83.15
2019-01-17T04:09:00.524Z,83.06
2019-01-17T04:10:00.498Z,83.06
2019-01-17T04:11:00.593Z,81.74
2019-01-17T04:12:00.464Z,81.36
2019-01-17T04:13:00.451Z,81.45
2019-01-17T04:14:00.435Z,82.02
2019-01-17T04:15:00.413Z,81.83
2019-01-17T04:16:00.381Z,82.45
2019-01-17T04:17:00.372Z,83.21
2019-01-17T04:18:00.355Z,83.40
2019-01-17T04:19:00.332Z,83.72
2019-01-17T04:20:00.318Z,83.82
2019-01-17T04:21:00.298Z,83.97
2019-01-17T04:22:00.277Z,83.82
2019-01-17T04:23:00.259Z,84.44
2019-01-17T04:24:00.250Z,84.53
2019-01-17T04:25:00.232Z,84.34
2019-01-17T04:26:00.203Z,85.28
2019-01-17T04:27:00.210Z,84.81
2019-01-17T04:28:00.173Z,85.19
2019-01-17T04:29:00.151Z,85.10
2019-01-17T04:30:00.222Z,84.53
2019-01-17T04:31:00.112Z,84.91
2019-01-17T04:32:00.094Z,85.10
2019-01-17T04:33:00.078Z,84.44
2019-01-17T04:34:00.065Z,83.02
2019-01-17T04:35:00.044Z,83.49
2019-01-17T04:36:00.026Z,83.11
2019-01-17T04:37:00.006Z,83.49
2019-01-17T04:37:59.987Z,83.59
2019-01-17T04:38:59.963Z,81.98
2019-01-17T04:39:59.951Z,81.51
2019-01-17T04:40:59.929Z,81.88
2019-01-17T04:41:59.907Z,82.07
2019-01-17T04:42:59.897Z,82.17
2019-01-17T04:43:59.872Z,82.35
2019-01-17T04:44:59.850Z,83.11
2019-01-17T04:45:59.833Z,83.49
2019-01-17T04:46:59.820Z,84.44
2019-01-17T04:47:59.805Z,84.63
2019-01-17T04:48:59.787Z,84.44
2019-01-17T04:49:59.765Z,84.34
2019-01-17T04:50:59.745Z,83.59
2019-01-17T04:51:59.728Z,84.34
2019-01-17T04:52:59.717Z,84.16
2019-01-17T04:53:59.685Z,83.87
2019-01-17T04:55:05.041Z,84.53
2019-01-17T04:55:59.654Z,84.44
2019-01-17T04:56:59.629Z,83.87
2019-01-17T04:57:59.614Z,83.21
2019-01-17T04:58:59.594Z,83.11
2019-01-17T04:59:59.574Z,84.25
2019-01-17T05:00:59.560Z,84.53
2019-01-17T05:01:59.538Z,84.34
2019-01-17T05:02:59.523Z,83.97
2019-01-17T05:03:59.519Z,83.53
2019-01-17T05:04:59.491Z,80.79
2019-01-17T05:05:59.462Z,79.18
2019-01-17T05:06:59.448Z,79.28
2019-01-17T05:07:59.427Z,79.94
2019-01-17T05:08:59.415Z,79.94
2019-01-17T05:09:59.393Z,80.13
2019-01-17T05:10:59.373Z,81.13
2019-01-17T05:11:59.354Z,81.93
2019-01-17T05:12:59.338Z,82.31
2019-01-17T05:13:59.313Z,82.21
2019-01-17T05:14:59.304Z,81.55
2019-01-17T05:15:59.278Z,80.79
2019-01-17T05:16:59.261Z,79.94
2019-01-17T05:17:59.239Z,81.07
2019-01-17T05:18:59.225Z,82.68
2019-01-17T05:19:59.226Z,82.50
2019-01-17T05:20:59.187Z,80.60
2019-01-17T05:21:59.173Z,77.95
2019-01-17T05:22:59.151Z,77.39
2019-01-17T05:23:59.127Z,77.10
2019-01-17T05:24:59.117Z,77.10
2019-01-17T05:25:59.101Z,76.82
2019-01-17T05:26:59.074Z,77.10
2019-01-17T05:27:59.058Z,78.33
2019-01-17T05:28:59.038Z,79.56
2019-01-17T05:29:59.020Z,80.98
2019-01-17T05:30:59.000Z,81.55
2019-01-17T05:31:58.987Z,81.74
2019-01-17T05:32:58.983Z,81.36
2019-01-17T05:33:58.947Z,81.83
2019-01-17T05:34:58.927Z,82.31
2019-01-17T05:35:58.905Z,82.12
2019-01-17T05:36:58.889Z,82.68
2019-01-17T05:37:58.873Z,82.59
2019-01-17T05:38:58.856Z,82.40
2019-01-17T05:39:58.834Z,81.64
2019-01-17T05:40:58.816Z,82.40
2019-01-17T05:41:58.795Z,82.50
2019-01-17T05:42:58.778Z,82.78
2019-01-17T05:43:58.756Z,81.64
2019-01-17T05:44:58.737Z,80.32
2019-01-17T05:45:58.719Z,80.13
2019-01-17T05:46:58.698Z,79.75
2019-01-17T05:47:58.679Z,79.47
2019-01-17T05:48:58.704Z,80.41
2019-01-17T05:49:58.651Z,79.47
2019-01-17T05:50:58.626Z,79.18
2019-01-17T05:51:58.608Z,78.71
2019-01-17T05:52:58.588Z,77.95
2019-01-17T05:53:58.569Z,77.86
2019-01-17T05:54:58.555Z,78.52
2019-01-17T05:55:58.534Z,79.09
2019-01-17T05:56:58.515Z,79.09
2019-01-17T05:57:58.494Z,77.86
2019-01-17T05:58:58.474Z,77.48
2019-01-17T05:59:58.462Z,78.05
2019-01-17T06:00:58.483Z,78.42
2019-01-17T06:01:58.416Z,78.33
2019-01-17T06:02:58.399Z,78.14
2019-01-17T06:03:58.381Z,77.76
2019-01-17T06:04:58.363Z,77.39
2019-01-17T06:05:58.341Z,77.20
2019-01-17T06:06:58.325Z,77.29
2019-01-17T06:07:58.310Z,77.20
2019-01-17T06:08:58.293Z,77.29
2019-01-17T06:09:58.272Z,77.76
2019-01-17T06:10:58.254Z,77.48
2019-01-17T06:11:58.235Z,77.67
2019-01-17T06:12:58.226Z,77.58
2019-01-17T06:13:58.203Z,77.67
2019-01-17T06:14:58.179Z,77.48
2019-01-17T06:15:58.165Z,77.76
2019-01-17T06:16:58.139Z,78.71
2019-01-17T06:17:58.119Z,79.18
2019-01-17T06:18:58.101Z,79.28
2019-01-17T06:19:58.083Z,79.28
2019-01-17T06:20:58.068Z,79.47
2019-01-17T06:21:58.045Z,80.32
2019-01-17T06:22:58.025Z,79.94
2019-01-17T06:23:58.008Z,78.71
2019-01-17T06:24:57.986Z,78.90
2019-01-17T06:25:57.970Z,79.37
2019-01-17T06:26:57.955Z,78.99
2019-01-17T06:27:57.932Z,80.13
2019-01-17T06:28:57.919Z,79.47
2019-01-17T06:29:57.890Z,80.04
2019-01-17T06:30:57.878Z,79.85
2019-01-17T06:31:57.855Z,78.33
2019-01-17T06:32:57.839Z,78.14
2019-01-17T06:33:57.819Z,78.23
2019-01-17T06:34:57.799Z,78.71
2019-01-17T06:35:57.792Z,79.09
2019-01-17T06:36:57.765Z,79.66
2019-01-17T06:37:57.741Z,79.66
2019-01-17T06:38:57.739Z,79.85
2019-01-17T06:39:57.710Z,79.28
2019-01-17T06:40:57.690Z,80.22
2019-01-17T06:41:57.664Z,79.66
2019-01-17T06:42:57.666Z,78.61
2019-01-17T06:43:57.630Z,79.09
2019-01-17T06:44:57.610Z,78.61
2019-01-17T06:45:57.600Z,78.42
2019-01-17T06:46:57.576Z,79.18
2019-01-17T06:47:57.553Z,80.13
2019-01-17T06:48:57.541Z,79.85
2019-01-17T06:49:57.521Z,80.04
2019-01-17T06:50:57.497Z,79.28
2019-01-17T06:51:57.489Z,78.23
2019-01-17T06:52:57.456Z,78.33
2019-01-17T06:53:57.445Z,77.95
2019-01-17T06:54:57.427Z,78.61
2019-01-17T06:55:57.410Z,78.71
2019-01-17T06:56:57.382Z,78.71
2019-01-17T06:57:57.370Z,78.71
2019-01-17T06:58:57.352Z,78.52
2019-01-17T06:59:57.331Z,78.80
2019-01-17T07:00:57.305Z,79.56
2019-01-17T07:01:57.293Z,80.13
2019-01-17T07:02:57.269Z,80.22
2019-01-17T07:03:57.251Z,79.56
2019-01-17T07:04:57.236Z,79.85
2019-01-17T07:05:57.213Z,79.37
2019-01-17T07:06:57.198Z,80.88
2019-01-17T07:07:57.184Z,80.51
2019-01-17T07:08:57.157Z,79.66
2019-01-17T07:09:57.143Z,79.28
2019-01-17T07:10:57.126Z,79.37
2019-01-17T07:11:57.105Z,78.80
2019-01-17T07:12:57.085Z,79.09
2019-01-17T07:13:57.069Z,79.56
2019-01-17T07:14:57.050Z,80.88
2019-01-17T07:15:57.031Z,82.40
2019-01-17T07:16:57.007Z,82.50
2019-01-17T07:17:56.989Z,82.59
2019-01-17T07:18:56.967Z,81.83
2019-01-17T07:19:56.956Z,81.74
2019-01-17T07:20:56.940Z,80.51
2019-01-17T07:21:56.920Z,79.66
2019-01-17T07:22:56.900Z,79.75
2019-01-17T07:23:56.884Z,79.66
2019-01-17T07:24:56.865Z,79.94
2019-01-17T07:25:56.842Z,79.75
2019-01-17T07:26:56.822Z,80.32
2019-01-17T07:27:56.803Z,79.47
2019-01-17T07:28:56.787Z,79.94
2019-01-17T07:29:56.770Z,79.94
2019-01-17T07:30:56.753Z,80.60
2019-01-17T07:31:56.731Z,80.32
2019-01-17T07:32:56.720Z,79.47
2019-01-17T07:33:56.693Z,79.94
2019-01-17T07:34:56.675Z,79.94
2019-01-17T07:35:56.662Z,80.60
2019-01-17T07:36:56.640Z,80.79
2019-01-17T07:37:56.614Z,80.98
2019-01-17T07:38:56.612Z,81.45
2019-01-17T07:39:56.582Z,81.45
2019-01-17T07:40:56.562Z,79.75
2019-01-17T07:41:56.546Z,77.95
2019-01-17T07:42:56.530Z,76.63
2019-01-17T07:43:56.509Z,77.39
2019-01-17T07:44:56.493Z,78.52
2019-01-17T07:45:56.469Z,79.94
2019-01-17T07:46:56.455Z,80.22
2019-01-17T07:47:56.433Z,80.51
2019-01-17T07:48:56.417Z,81.17
2019-01-17T07:49:56.399Z,80.98
2019-01-17T07:50:56.384Z,81.07
2019-01-17T07:51:56.364Z,79.28
2019-01-17T07:52:56.342Z,79.18
2019-01-17T07:53:56.338Z,78.71
2019-01-17T07:54:56.308Z,78.23
2019-01-17T07:55:56.289Z,78.14
2019-01-17T07:56:56.268Z,78.61
2019-01-17T07:57:56.253Z,78.61
2019-01-17T07:58:56.230Z,78.71
2019-01-17T07:59:56.213Z,79.56
2019-01-17T08:00:56.197Z,80.98
2019-01-17T08:01:56.175Z,81.26
2019-01-17T08:02:56.159Z,80.41
2019-01-17T08:03:56.139Z,80.60
2019-01-17T08:04:56.119Z,80.69
2019-01-17T08:05:56.103Z,81.26
2019-01-17T08:06:56.845Z,80.41
2019-01-17T08:07:56.064Z,78.61
2019-01-17T08:08:56.046Z,77.39
2019-01-17T08:09:56.030Z,76.72
2019-01-17T08:10:56.014Z,75.96
2019-01-17T08:11:55.993Z,75.96
2019-01-17T08:12:55.977Z,76.15
2019-01-17T08:13:55.957Z,77.10
2019-01-17T08:14:55.937Z,78.42
2019-01-17T08:15:55.918Z,78.52
2019-01-17T08:16:55.904Z,77.95
2019-01-17T08:17:55.882Z,77.76
2019-01-17T08:18:55.862Z,78.14
2019-01-17T08:19:55.852Z,78.80
2019-01-17T08:20:55.833Z,78.42
2019-01-17T08:21:55.807Z,77.29
2019-01-17T08:22:55.784Z,77.39
2019-01-17T08:23:55.777Z,77.76
2019-01-17T08:24:55.751Z,77.58
2019-01-17T08:25:55.735Z,78.42
2019-01-17T08:26:55.712Z,79.09
2019-01-17T08:27:55.701Z,80.04
2019-01-17T08:28:55.683Z,78.71
2019-01-17T08:29:55.666Z,78.61
2019-01-17T08:30:55.637Z,78.52
2019-01-17T08:31:55.628Z,78.99
2019-01-17T08:32:55.617Z,78.61
2019-01-17T08:33:55.588Z,79.18
2019-01-17T08:34:55.576Z,79.47
2019-01-17T08:35:55.553Z,79.75
2019-01-17T08:36:55.536Z,80.55
2019-01-17T08:37:55.524Z,80.07
2019-01-17T08:38:55.500Z,78.75
2019-01-17T08:39:55.481Z,77.80
2019-01-17T08:40:55.463Z,77.04
2019-01-17T08:41:55.449Z,76.86
2019-01-17T08:42:55.421Z,76.19
2019-01-17T08:43:55.401Z,76.00
2019-01-17T08:44:55.390Z,76.19
2019-01-17T08:45:55.375Z,75.47
2019-01-17T08:46:55.348Z,75.00
2019-01-17T08:47:55.330Z,75.00
2019-01-17T08:48:55.323Z,75.09
2019-01-17T08:49:55.296Z,75.76
2019-01-17T08:50:55.277Z,75.76
2019-01-17T08:51:55.260Z,75.00
2019-01-17T08:52:55.246Z,74.75
2019-01-17T08:53:55.226Z,73.20
2019-01-17T08:54:55.208Z,72.10
2019-01-17T08:56:00.722Z,71.25
2019-01-17T08:56:55.171Z,70.97
2019-01-17T08:57:55.151Z,69.92
2019-01-17T08:58:55.137Z,68.88
2019-01-17T08:59:55.117Z,68.21
2019-01-17T09:00:55.105Z,67.74
2019-01-17T09:01:55.083Z,68.15
2019-01-17T09:02:55.067Z,67.77
2019-01-17T09:03:55.051Z,68.44
2019-01-17T09:04:55.030Z,69.67
2019-01-17T09:05:55.017Z,69.71
2019-01-17T09:06:55.002Z,67.81
2019-01-17T09:07:54.984Z,65.06
2019-01-17T09:08:54.962Z,64.78
2019-01-17T09:09:54.945Z,64.97
2019-01-17T09:10:54.930Z,65.82
2019-01-17T09:11:54.913Z,65.53
2019-01-17T09:12:54.891Z,65.85
2019-01-17T09:13:54.875Z,65.00
2019-01-17T09:14:54.861Z,64.62
2019-01-17T09:15:54.844Z,64.24
2019-01-17T09:16:54.831Z,63.48
2019-01-17T09:17:54.811Z,64.43
2019-01-17T09:18:54.792Z,64.52
2019-01-17T09:19:54.774Z,65.28
2019-01-17T09:20:54.762Z,64.52
2019-01-17T09:21:54.744Z,64.33
2019-01-17T09:22:54.731Z,64.14
2019-01-17T09:23:54.713Z,64.90
2019-01-17T09:24:54.698Z,65.75
2019-01-17T09:25:54.677Z,65.75
2019-01-17T09:26:54.662Z,63.82
2019-01-17T09:27:54.644Z,63.17
2019-01-17T09:28:54.638Z,64.17
2019-01-17T09:29:54.620Z,65.50
2019-01-17T09:30:54.596Z,67.74
2019-01-17T09:31:54.604Z,69.35
2019-01-17T09:32:54.559Z,69.45
2019-01-17T09:33:54.551Z,69.82
2019-01-17T09:34:54.529Z,70.20
2019-01-17T09:35:54.525Z,70.81
2019-01-17T09:36:54.508Z,71.00
2019-01-17T09:37:54.486Z,71.28
2019-01-17T09:38:54.469Z,69.86
2019-01-17T09:39:54.448Z,69.67
2019-01-17T09:40:54.430Z,69.38
2019-01-17T09:41:54.415Z,68.91
2019-01-17T09:42:54.400Z,69.04
2019-01-17T09:43:54.381Z,68.00
2019-01-17T09:44:54.365Z,68.38
2019-01-17T09:45:54.349Z,68.29
2019-01-17T09:46:54.333Z,67.52
2019-01-17T09:47:54.314Z,67.24
2019-01-17T09:48:54.304Z,67.14
2019-01-17T09:49:54.286Z,67.52
2019-01-17T09:50:54.270Z,68.38
2019-01-17T09:51:54.252Z,68.29
2019-01-17T09:52:54.247Z,68.00
2019-01-17T09:53:54.213Z,66.14
2019-01-17T09:54:54.203Z,65.75
2019-01-17T09:55:54.189Z,66.52
2019-01-17T09:56:54.169Z,67.56
2019-01-17T09:57:54.149Z,68.35
2019-01-17T09:58:54.139Z,65.79
2019-01-17T09:59:54.120Z,64.84
2019-01-17T10:00:54.103Z,64.21
2019-01-17T10:01:54.096Z,62.40
2019-01-17T10:02:54.074Z,60.98
2019-01-17T10:03:54.068Z,61.65
2019-01-17T10:04:54.044Z,61.74
2019-01-17T10:05:54.026Z,61.17
2019-01-17T10:06:54.012Z,62.02
2019-01-17T10:07:53.995Z,61.93
2019-01-17T10:08:53.978Z,62.53
2019-01-17T10:09:53.965Z,61.96
2019-01-17T10:10:53.945Z,59.52
2019-01-17T10:11:53.933Z,57.33
2019-01-17T10:12:53.918Z,57.33
2019-01-17T10:13:53.902Z,56.95
2019-01-17T10:14:53.898Z,57.26
2019-01-17T10:15:53.875Z,56.98
2019-01-17T10:16:53.859Z,56.60
2019-01-17T10:17:53.843Z,56.44
2019-01-17T10:18:53.828Z,56.82
2019-01-17T10:19:53.813Z,55.58
2019-01-17T10:20:53.801Z,55.68
2019-01-17T10:21:53.780Z,56.53
2019-01-17T10:22:53.773Z,57.29
2019-01-17T10:23:53.760Z,57.77
2019-01-17T10:24:53.748Z,57.39
2019-01-17T10:25:53.724Z,58.28
2019-01-17T10:26:53.715Z,56.37
2019-01-17T10:27:53.700Z,53.89
2019-01-17T10:28:53.682Z,54.18
2019-01-17T10:29:53.668Z,53.52
2019-01-17T10:30:53.653Z,53.42
2019-01-17T10:31:53.639Z,52.49
2019-01-17T10:32:53.631Z,51.45
2019-01-17T10:33:53.613Z,52.40
2019-01-17T10:34:53.601Z,52.49
2019-01-17T10:35:53.591Z,51.25
2019-01-17T10:36:53.573Z,50.87
2019-01-17T10:37:53.563Z,49.63
2019-01-17T10:38:53.549Z,50.30
2019-01-17T10:39:53.532Z,51.92
2019-01-17T10:40:53.520Z,52.30
2019-01-17T10:41:53.503Z,51.64
2019-01-17T10:42:53.488Z,51.47
2019-01-17T10:43:53.480Z,52.42
2019-01-17T10:44:53.460Z,51.85
2019-01-17T10:45:53.456Z,50.80
2019-01-17T10:46:53.438Z,49.40
2019-01-17T10:47:53.427Z,50.54
2019-01-17T10:48:53.413Z,48.07
2019-01-17T10:49:53.398Z,46.89
2019-01-17T10:50:53.385Z,47.85
2019-01-17T10:51:53.375Z,48.97
2019-01-17T10:52:53.364Z,51.64
2019-01-17T10:53:53.348Z,51.64
2019-01-17T10:54:53.338Z,51.47
2019-01-17T10:55:53.318Z,51.06
2019-01-17T10:56:53.307Z,50.78
2019-01-17T10:57:53.302Z,51.80
2019-01-17T10:58:53.279Z,51.58
2019-01-17T10:59:53.272Z,52.72
2019-01-17T11:00:53.261Z,52.72
2019-01-17T11:01:53.245Z,53.67
2019-01-17T11:02:53.237Z,53.49
2019-01-17T11:03:53.222Z,53.80
2019-01-17T11:04:53.212Z,53.99
2019-01-17T11:05:53.199Z,54.02
2019-01-17T11:06:53.184Z,53.35
2019-01-17T11:07:53.170Z,53.44
2019-01-17T11:08:53.160Z,53.64
2019-01-17T11:09:53.142Z,54.30
2019-01-17T11:10:53.126Z,54.14
2019-01-17T11:11:53.121Z,54.14
2019-01-17T11:12:53.112Z,54.52
2019-01-17T11:13:53.091Z,54.14
2019-01-17T11:14:53.078Z,53.59
2019-01-17T11:15:53.065Z,51.95
2019-01-17T11:16:53.055Z,50.97
2019-01-17T11:17:53.037Z,52.14
2019-01-17T11:18:53.027Z,52.90
2019-01-17T11:19:53.018Z,53.00
2019-01-17T11:20:53.004Z,53.28
2019-01-17T11:21:52.996Z,53.85
2019-01-17T11:22:52.982Z,53.69
2019-01-17T11:23:52.967Z,53.21
2019-01-17T11:24:52.954Z,52.73
2019-01-17T11:25:52.941Z,52.57
2019-01-17T11:26:52.930Z,51.33
2019-01-17T11:27:52.920Z,50.47
2019-01-17T11:28:52.902Z,51.04
2019-01-17T11:29:52.896Z,51.14
2019-01-17T11:30:52.881Z,50.57
2019-01-17T11:31:52.868Z,49.23
2019-01-17T11:32:52.865Z,49.40
2019-01-17T11:33:52.843Z,49.56
2019-01-17T11:34:52.834Z,50.99
2019-01-17T11:35:52.817Z,51.78
2019-01-17T11:36:52.805Z,51.68
2019-01-17T11:37:52.794Z,52.42
2019-01-17T11:38:52.783Z,54.52
2019-01-17T11:39:52.771Z,55.95
2019-01-17T11:40:52.761Z,56.55
2019-01-17T11:41:52.749Z,56.65
2019-01-17T11:42:52.739Z,56.46
2019-01-17T11:43:52.722Z,56.01
2019-01-17T11:44:52.714Z,54.77
2019-01-17T11:45:52.700Z,53.74
2019-01-17T11:46:52.692Z,52.59
2019-01-17T11:47:52.678Z,52.40
2019-01-17T11:48:52.890Z,51.45
2019-01-17T11:49:52.654Z,51.67
2019-01-17T11:50:52.648Z,50.90
2019-01-17T11:51:52.634Z,51.79
2019-01-17T11:52:52.623Z,52.08
2019-01-17T11:53:52.605Z,52.01
2019-01-17T11:54:52.593Z,50.57
2019-01-17T11:55:52.584Z,49.84
2019-01-17T11:56:52.576Z,47.82
2019-01-17T11:57:52.565Z,46.39
2019-01-17T11:58:52.548Z,45.74
2019-01-17T11:59:52.542Z,45.07
2019-01-17T12:00:52.529Z,45.07
2019-01-17T12:01:52.519Z,44.50
2019-01-17T12:02:52.503Z,43.63
2019-01-17T12:03:52.499Z,43.26
2019-01-17T12:04:52.483Z,44.13
2019-01-17T12:05:52.489Z,44.23
2019-01-17T12:06:52.464Z,42.99
2019-01-17T12:07:52.452Z,41.65
2019-01-17T12:08:52.454Z,41.07
2019-01-17T12:09:52.432Z,41.55
2019-01-17T12:10:52.423Z,42.03
2019-01-17T12:11:52.416Z,41.57
2019-01-17T12:12:52.406Z,39.85
2019-01-17T12:13:52.391Z,38.60
2019-01-17T12:14:52.388Z,38.10
2019-01-17T12:15:52.376Z,39.72
2019-01-17T12:16:52.365Z,41.70
2019-01-17T12:17:52.353Z,42.54
2019-01-17T12:18:52.350Z,44.43
2019-01-17T12:19:52.336Z,45.20
2019-01-17T12:20:52.321Z,46.22
2019-01-17T12:21:52.317Z,47.71
2019-01-17T12:22:52.305Z,49.40
2019-01-17T12:23:52.300Z,51.37
2019-01-17T12:24:52.287Z,52.55
2019-01-17T12:25:52.276Z,53.50
2019-01-17T12:26:52.266Z,52.73
2019-01-17T12:27:52.251Z,52.61
2019-01-17T12:28:52.243Z,53.02
2019-01-17T12:29:52.235Z,52.42
2019-01-17T12:30:52.234Z,53.95
2019-01-17T12:31:52.214Z,54.24
2019-01-17T12:32:52.206Z,54.43
2019-01-17T12:33:52.197Z,54.52
2019-01-17T12:34:52.182Z,55.28
2019-01-17T12:35:52.174Z,54.33
2019-01-17T12:36:52.163Z,52.42
2019-01-17T12:37:52.150Z,51.37
2019-01-17T12:38:52.149Z,51.54
2019-01-17T12:39:52.129Z,53.06
2019-01-17T12:40:52.117Z,54.39
2019-01-17T12:41:52.103Z,54.37
2019-01-17T12:42:52.087Z,54.94
2019-01-17T12:43:52.085Z,55.68
2019-01-17T12:44:52.071Z,56.72
2019-01-17T12:45:52.059Z,57.39
2019-01-17T12:46:52.045Z,58.59
2019-01-17T12:47:52.039Z,59.55
2019-01-17T12:48:52.026Z,59.99
2019-01-17T12:49:52.014Z,60.82
2019-01-17T12:50:52.000Z,61.87
2019-01-17T12:51:51.988Z,63.29